createdAt,value
2019-02-10T00:00:27.337Z,6.50
2019-02-10T00:02:56.944Z,6.50
2019-02-10T00:05:26.241Z,6.50
2019-02-10T00:07:55.837Z,6.50
2019-02-10T00:10:25.505Z,6.50
2019-02-10T00:13:28.923Z,6.50
2019-02-10T00:15:58.716Z,6.50
2019-02-10T00:18:28.495Z,6.50
2019-02-10T00:20:58.773Z,6.40
2019-02-10T00:23:28.022Z,6.40
2019-02-10T00:25:58.015Z,6.40
2019-02-10T00:28:28.276Z,6.30
2019-02-10T00:30:58.721Z,6.30
2019-02-10T00:33:28.623Z,6.30
2019-02-10T00:35:58.566Z,6.20
2019-02-10T00:38:28.118Z,6.20
2019-02-10T00:40:58.035Z,6.10
2019-02-10T00:43:27.304Z,6.10
2019-02-10T00:45:56.651Z,6.10
2019-02-10T00:48:26.022Z,6.00
2019-02-10T00:50:55.680Z,6.00
2019-02-10T00:53:44.230Z,6.00
2019-02-10T00:56:13.766Z,6.00
2019-02-10T00:59:02.187Z,6.00
2019-02-10T01:01:31.413Z,5.90
2019-02-10T01:04:00.660Z,5.90
2019-02-10T01:06:29.919Z,5.90
2019-02-10T01:08:59.153Z,5.90
2019-02-10T01:11:29.429Z,5.90
2019-02-10T01:13:59.057Z,5.90
2019-02-10T01:16:28.575Z,6.00
2019-02-10T01:19:23.414Z,6.00
2019-02-10T01:21:52.812Z,6.00
2019-02-10T01:24:22.578Z,6.00
2019-02-10T01:26:52.417Z,6.00
2019-02-10T01:29:21.939Z,6.00
2019-02-10T01:31:51.992Z,6.10
2019-02-10T01:34:21.614Z,6.10
2019-02-10T01:36:51.537Z,6.20
2019-02-10T01:39:24.413Z,6.20
2019-02-10T01:41:54.020Z,6.20
2019-02-10T01:44:23.361Z,6.20
2019-02-10T01:46:53.215Z,6.20
2019-02-10T01:49:23.565Z,6.20
2019-02-10T01:51:52.921Z,6.20
2019-02-10T01:54:22.894Z,6.20
2019-02-10T01:57:11.718Z,6.20
2019-02-10T01:59:41.283Z,6.20
2019-02-10T02:02:11.412Z,6.20
2019-02-10T02:04:40.959Z,6.20
2019-02-10T02:07:10.187Z,6.20
2019-02-10T02:09:40.036Z,6.20
2019-02-10T02:12:10.190Z,6.20
2019-02-10T02:14:39.973Z,6.20
2019-02-10T02:17:09.217Z,6.20
2019-02-10T02:19:38.767Z,6.20
2019-02-10T02:22:08.746Z,6.20
2019-02-10T02:24:38.474Z,6.30
2019-02-10T02:27:08.162Z,6.30
2019-02-10T02:29:37.951Z,6.30
2019-02-10T02:32:07.881Z,6.40
2019-02-10T02:34:37.908Z,6.40
2019-02-10T02:37:08.397Z,6.40
2019-02-10T02:39:37.838Z,6.40
2019-02-10T02:42:07.441Z,6.40
2019-02-10T02:44:37.667Z,6.40
2019-02-10T02:47:26.069Z,6.40
2019-02-10T02:49:55.422Z,6.40
2019-02-10T02:52:24.807Z,6.30
2019-02-10T02:54:54.559Z,6.30
2019-02-10T02:57:24.487Z,6.30
2019-02-10T02:59:54.527Z,6.20
2019-02-10T03:02:24.572Z,6.20
2019-02-10T03:04:54.071Z,6.20
2019-02-10T03:07:23.792Z,6.20
2019-02-10T03:09:53.791Z,6.20
2019-02-10T03:12:23.158Z,6.20
2019-02-10T03:14:52.424Z,6.20
2019-02-10T03:17:22.322Z,6.20
2019-02-10T03:19:52.295Z,6.20
2019-02-10T03:22:22.271Z,6.30
2019-02-10T03:24:52.420Z,6.30
2019-02-10T03:27:21.802Z,6.30
2019-02-10T03:29:51.781Z,6.30
2019-02-10T03:32:21.929Z,6.30
2019-02-10T03:34:51.960Z,6.30
2019-02-10T03:37:27.333Z,6.30
2019-02-10T03:39:52.618Z,6.30
2019-02-10T03:42:22.173Z,6.40
2019-02-10T03:44:52.520Z,6.40
2019-02-10T03:47:22.287Z,6.40
2019-02-10T03:49:51.962Z,6.40
2019-02-10T03:52:21.539Z,6.40
2019-02-10T03:54:51.621Z,6.40
2019-02-10T03:57:21.531Z,6.40
2019-02-10T03:59:51.301Z,6.40
2019-02-10T04:02:21.392Z,6.40
2019-02-10T04:04:50.614Z,6.50
2019-02-10T04:07:20.107Z,6.40
2019-02-10T04:09:50.184Z,6.50
2019-02-10T04:12:19.933Z,6.50
2019-02-10T04:14:49.161Z,6.40
2019-02-10T04:17:18.784Z,6.40
2019-02-10T04:19:48.176Z,6.50
2019-02-10T04:22:17.366Z,6.40
2019-02-10T04:24:46.950Z,6.50
2019-02-10T04:27:16.931Z,6.50
2019-02-10T04:29:46.580Z,6.40
2019-02-10T04:32:15.787Z,6.40
2019-02-10T04:34:45.435Z,6.40
2019-02-10T04:37:15.082Z,6.40
2019-02-10T04:39:44.492Z,6.30
2019-02-10T04:42:14.404Z,6.30
2019-02-10T04:44:44.074Z,6.30
2019-02-10T04:47:13.743Z,6.30
2019-02-10T04:49:43.315Z,6.20
2019-02-10T04:52:12.559Z,6.20
2019-02-10T04:54:42.469Z,6.20
2019-02-10T04:57:11.714Z,6.20
2019-02-10T04:59:41.649Z,6.20
2019-02-10T05:02:10.986Z,6.20
2019-02-10T05:04:40.596Z,6.20
2019-02-10T05:07:10.559Z,6.10
2019-02-10T05:09:40.217Z,6.10
2019-02-10T05:12:28.956Z,6.10
2019-02-10T05:14:58.194Z,6.10
2019-02-10T05:17:27.729Z,6.10
2019-02-10T05:19:57.427Z,6.10
2019-02-10T05:22:27.001Z,6.10
2019-02-10T05:24:56.639Z,6.20
2019-02-10T05:27:45.518Z,6.20
2019-02-10T05:30:15.332Z,6.20
2019-02-10T05:32:44.970Z,6.20
2019-02-10T05:35:14.358Z,6.20
2019-02-10T05:37:44.047Z,6.20
2019-02-10T05:40:14.042Z,6.20
2019-02-10T05:42:43.642Z,6.20
2019-02-10T05:45:12.959Z,6.20
2019-02-10T05:47:42.935Z,6.10
2019-02-10T05:50:12.512Z,6.10
2019-02-10T05:52:42.089Z,6.10
2019-02-10T05:55:12.058Z,6.00
2019-02-10T05:57:42.512Z,6.00
2019-02-10T06:00:11.991Z,6.00
2019-02-10T06:02:41.674Z,5.90
2019-02-10T06:05:25.908Z,5.90
2019-02-10T06:07:55.509Z,5.80
2019-02-10T06:10:25.068Z,5.80
2019-02-10T06:12:54.725Z,5.80
2019-02-10T06:15:24.472Z,5.70
2019-02-10T06:17:54.117Z,5.70
2019-02-10T06:20:23.438Z,5.70
2019-02-10T06:22:52.684Z,5.70
2019-02-10T06:25:22.385Z,5.70
2019-02-10T06:27:52.629Z,5.70
2019-02-10T06:30:22.411Z,5.60
2019-02-10T06:32:52.511Z,5.60
2019-02-10T06:35:22.849Z,5.60
2019-02-10T06:37:52.101Z,5.50
2019-02-10T06:40:21.673Z,5.50
2019-02-10T06:42:51.475Z,5.50
2019-02-10T06:45:21.929Z,5.40
2019-02-10T06:47:51.931Z,5.40
2019-02-10T06:50:21.706Z,5.40
2019-02-10T06:52:51.338Z,5.40
2019-02-10T06:55:21.456Z,5.40
2019-02-10T06:57:51.582Z,5.30
2019-02-10T07:00:39.898Z,5.30
2019-02-10T07:04:06.931Z,5.30
2019-02-10T07:06:36.526Z,5.30
2019-02-10T07:09:06.913Z,5.20
2019-02-10T07:11:37.245Z,5.20
2019-02-10T07:14:20.017Z,5.20
2019-02-10T07:17:17.139Z,5.10
2019-02-10T07:20:39.140Z,5.10
2019-02-10T07:23:39.082Z,5.10
2019-02-10T07:26:28.075Z,5.10
2019-02-10T07:29:26.802Z,5.10
2019-02-10T07:32:26.430Z,5.10
2019-02-10T07:35:22.402Z,5.10
2019-02-10T07:38:24.415Z,5.10
2019-02-10T07:41:33.669Z,5.10
2019-02-10T07:44:57.858Z,5.10
2019-02-10T07:48:20.500Z,5.10
2019-02-10T07:51:25.634Z,5.10
2019-02-10T07:54:42.290Z,5.20
2019-02-10T07:57:55.192Z,5.20
2019-02-10T08:00:38.006Z,5.20
2019-02-10T08:03:54.861Z,5.20
2019-02-10T08:07:00.887Z,5.20
2019-02-10T08:09:51.216Z,5.20
2019-02-10T08:13:04.639Z,5.30
2019-02-10T08:15:52.383Z,5.30
2019-02-10T08:19:00.016Z,5.30
2019-02-10T08:21:58.465Z,5.20
2019-02-10T08:24:54.810Z,5.30
2019-02-10T08:28:01.795Z,5.30
2019-02-10T08:31:02.462Z,5.30
2019-02-10T08:33:46.110Z,5.30
2019-02-10T08:36:40.766Z,5.30
2019-02-10T08:39:38.114Z,5.20
2019-02-10T08:42:55.182Z,5.20
2019-02-10T08:45:33.790Z,5.20
2019-02-10T08:49:02.890Z,5.20
2019-02-10T08:52:07.020Z,5.20
2019-02-10T08:54:37.046Z,5.20
2019-02-10T08:57:06.604Z,5.30
2019-02-10T08:59:37.099Z,5.30
2019-02-10T09:02:06.315Z,5.30
2019-02-10T09:04:42.994Z,5.30
2019-02-10T09:07:12.623Z,5.30
2019-02-10T09:09:42.751Z,5.40
2019-02-10T09:12:13.089Z,5.40
2019-02-10T09:14:43.803Z,5.40
2019-02-10T09:17:13.129Z,5.40
2019-02-10T09:19:43.637Z,5.40
2019-02-10T09:22:13.009Z,5.40
2019-02-10T09:24:42.626Z,5.40
2019-02-10T09:27:12.759Z,5.40
2019-02-10T09:29:42.338Z,5.40
2019-02-10T09:32:11.658Z,5.40
2019-02-10T09:34:41.231Z,5.40
2019-02-10T09:37:10.577Z,5.50
2019-02-10T09:39:39.830Z,5.50
2019-02-10T09:42:09.214Z,5.50
2019-02-10T09:44:38.444Z,5.50
2019-02-10T09:47:07.763Z,5.50
2019-02-10T09:49:37.698Z,5.50
2019-02-10T09:52:07.529Z,5.50
2019-02-10T09:54:37.569Z,5.50
2019-02-10T09:57:06.830Z,5.60
2019-02-10T09:59:36.991Z,5.60
2019-02-10T10:02:07.165Z,5.60
2019-02-10T10:04:36.763Z,5.70
2019-02-10T10:07:05.951Z,5.70
2019-02-10T10:09:35.650Z,5.70
2019-02-10T10:12:04.945Z,5.70
2019-02-10T10:14:34.974Z,5.80
2019-02-10T10:17:05.226Z,5.80
2019-02-10T10:19:34.832Z,5.80
2019-02-10T10:22:04.044Z,5.80
2019-02-10T10:24:33.272Z,5.90
2019-02-10T10:27:02.614Z,5.90
2019-02-10T10:29:32.362Z,5.90
2019-02-10T10:32:02.723Z,5.90
2019-02-10T10:34:32.835Z,5.90
2019-02-10T10:37:02.617Z,5.90
2019-02-10T10:39:31.878Z,6.00
2019-02-10T10:42:04.498Z,5.90
2019-02-10T10:44:34.619Z,6.00
2019-02-10T10:47:03.850Z,6.00
2019-02-10T10:49:33.222Z,6.00
2019-02-10T10:52:02.987Z,6.00
2019-02-10T10:54:33.246Z,6.00
2019-02-10T10:57:03.270Z,6.00
2019-02-10T10:59:33.241Z,6.10
2019-02-10T11:02:02.657Z,6.10
2019-02-10T11:04:32.858Z,6.10
2019-02-10T11:07:02.096Z,6.10
2019-02-10T11:09:35.595Z,6.10
2019-02-10T11:12:03.696Z,6.10
2019-02-10T11:14:33.328Z,6.10
2019-02-10T11:17:03.167Z,6.20
2019-02-10T11:19:33.308Z,6.20
2019-02-10T11:22:02.860Z,6.20
2019-02-10T11:24:33.566Z,6.20
2019-02-10T11:27:02.795Z,6.20
2019-02-10T11:29:32.054Z,6.20
2019-02-10T11:32:01.295Z,6.30
2019-02-10T11:34:46.226Z,6.30
2019-02-10T11:37:13.555Z,6.30
2019-02-10T11:39:44.140Z,6.30
2019-02-10T11:42:13.810Z,6.30
2019-02-10T11:44:44.282Z,6.30
2019-02-10T11:47:13.490Z,6.30
2019-02-10T11:49:43.766Z,6.40
2019-02-10T11:52:13.042Z,6.40
2019-02-10T11:54:43.045Z,6.40
2019-02-10T11:57:12.370Z,6.50
2019-02-10T11:59:41.935Z,6.50
2019-02-10T12:02:11.150Z,6.50
2019-02-10T12:04:40.840Z,6.50
2019-02-10T12:07:10.077Z,6.50
2019-02-10T12:09:39.858Z,6.60
2019-02-10T12:12:09.591Z,6.60
2019-02-10T12:14:39.209Z,6.60
2019-02-10T12:17:09.238Z,6.60
2019-02-10T12:19:39.819Z,6.60
2019-02-10T12:22:09.497Z,6.70
2019-02-10T12:24:40.044Z,6.70
2019-02-10T12:27:10.044Z,6.70
2019-02-10T12:29:39.688Z,6.70
2019-02-10T12:32:08.894Z,6.70
2019-02-10T12:34:38.918Z,6.80
2019-02-10T12:37:08.994Z,6.80
2019-02-10T12:39:39.019Z,6.80
2019-02-10T12:42:08.962Z,6.80
2019-02-10T12:44:38.613Z,6.80
2019-02-10T12:47:08.844Z,6.80
2019-02-10T12:49:38.458Z,6.90
2019-02-10T12:52:08.145Z,6.90
2019-02-10T12:54:37.736Z,7.00
2019-02-10T12:57:06.957Z,7.00
2019-02-10T12:59:36.240Z,7.00
2019-02-10T13:02:06.342Z,7.10
2019-02-10T13:04:35.559Z,7.20
2019-02-10T13:07:05.224Z,7.20
2019-02-10T13:09:34.937Z,7.30
2019-02-10T13:12:04.887Z,7.30
2019-02-10T13:14:34.273Z,7.40
2019-02-10T13:17:03.566Z,7.40
2019-02-10T13:19:35.004Z,7.40
2019-02-10T13:22:04.352Z,7.50
2019-02-10T13:24:33.974Z,7.50
2019-02-10T13:27:03.558Z,7.50
2019-02-10T13:29:33.230Z,7.50
2019-02-10T13:32:05.605Z,7.60
2019-02-10T13:34:37.239Z,7.50
2019-02-10T13:37:07.401Z,7.60
2019-02-10T13:39:36.649Z,7.60
2019-02-10T13:42:07.387Z,7.60
2019-02-10T13:44:37.102Z,7.60
2019-02-10T13:47:06.351Z,7.60
2019-02-10T13:49:36.349Z,7.60
2019-02-10T13:52:06.173Z,7.70
2019-02-10T13:54:36.322Z,7.70
2019-02-10T13:57:05.611Z,7.70
2019-02-10T13:59:35.047Z,7.70
2019-02-10T14:02:04.593Z,7.70
2019-02-10T14:04:35.162Z,7.80
2019-02-10T14:07:08.244Z,7.80
2019-02-10T14:09:40.552Z,7.80
2019-02-10T14:12:10.282Z,7.90
2019-02-10T14:14:40.222Z,7.90
2019-02-10T14:17:09.522Z,7.90
2019-02-10T14:19:39.626Z,7.90
2019-02-10T14:22:09.472Z,7.90
2019-02-10T14:24:39.317Z,7.90
2019-02-10T14:27:08.911Z,8.00
2019-02-10T14:29:39.448Z,8.00
2019-02-10T14:32:09.234Z,8.00
2019-02-10T14:34:38.788Z,8.00
2019-02-10T14:37:08.754Z,7.90
2019-02-10T14:39:38.073Z,7.90
2019-02-10T14:42:07.288Z,7.90
2019-02-10T14:44:36.911Z,7.90
2019-02-10T14:47:06.556Z,7.90
2019-02-10T14:49:35.815Z,7.90
2019-02-10T14:52:05.426Z,7.90
2019-02-10T14:54:34.719Z,7.90
2019-02-10T14:57:04.414Z,8.00
2019-02-10T14:59:33.991Z,8.00
2019-02-10T15:02:03.312Z,8.00
2019-02-10T15:04:32.860Z,8.00
2019-02-10T15:07:02.122Z,8.10
2019-02-10T15:09:32.267Z,8.10
2019-02-10T15:12:02.070Z,8.10
2019-02-10T15:14:50.460Z,8.10
2019-02-10T15:17:20.075Z,8.10
2019-02-10T15:19:49.341Z,8.10
2019-02-10T15:22:19.382Z,8.00
2019-02-10T15:24:49.497Z,8.10
2019-02-10T15:27:19.135Z,8.10
2019-02-10T15:29:48.929Z,8.10
2019-02-10T15:32:18.573Z,8.10
2019-02-10T15:34:48.553Z,8.10
2019-02-10T15:37:18.127Z,8.10
2019-02-10T15:39:48.447Z,8.10
2019-02-10T15:42:18.241Z,8.10
2019-02-10T15:44:47.890Z,8.10
2019-02-10T15:47:17.509Z,8.10
2019-02-10T15:49:47.400Z,8.10
2019-02-10T15:52:16.637Z,8.10
2019-02-10T15:54:45.879Z,8.10
2019-02-10T15:57:16.285Z,8.10
2019-02-10T15:59:46.134Z,8.10
2019-02-10T16:02:15.954Z,8.10
2019-02-10T16:04:45.923Z,8.00
2019-02-10T16:07:15.576Z,8.00
2019-02-10T16:09:45.644Z,8.00
2019-02-10T16:12:15.508Z,7.90
2019-02-10T16:14:45.515Z,7.90
2019-02-10T16:17:15.074Z,7.90
2019-02-10T16:19:45.133Z,7.80
2019-02-10T16:22:15.123Z,7.80
2019-02-10T16:24:44.970Z,7.70
2019-02-10T16:27:14.570Z,7.70
2019-02-10T16:29:44.786Z,7.70
2019-02-10T16:32:14.406Z,7.60
2019-02-10T16:34:44.045Z,7.60
2019-02-10T16:37:14.308Z,7.50
2019-02-10T16:39:43.881Z,7.40
2019-02-10T16:42:13.857Z,7.40
2019-02-10T16:44:43.439Z,7.40
2019-02-10T16:47:13.087Z,7.40
2019-02-10T16:49:42.908Z,7.30
2019-02-10T16:52:12.272Z,7.30
2019-02-10T16:54:42.149Z,7.30
2019-02-10T16:57:11.509Z,7.20
2019-02-10T16:59:41.574Z,7.20
2019-02-10T17:02:11.163Z,7.20
2019-02-10T17:04:40.522Z,7.20
2019-02-10T17:07:10.466Z,7.20
2019-02-10T17:09:40.155Z,7.20
2019-02-10T17:12:10.157Z,7.10
2019-02-10T17:14:39.698Z,7.10
2019-02-10T17:17:09.364Z,7.10
2019-02-10T17:19:39.541Z,7.10
2019-02-10T17:22:08.754Z,7.10
2019-02-10T17:24:39.137Z,7.10
2019-02-10T17:27:09.179Z,7.10
2019-02-10T17:29:39.166Z,7.10
2019-02-10T17:32:09.501Z,7.10
2019-02-10T17:34:39.514Z,7.00
2019-02-10T17:37:09.164Z,7.00
2019-02-10T17:39:38.950Z,7.00
2019-02-10T17:42:08.978Z,6.90
2019-02-10T17:44:39.245Z,6.90
2019-02-10T17:47:08.949Z,6.90
2019-02-10T17:49:38.576Z,6.90
2019-02-10T17:52:08.094Z,6.80
2019-02-10T17:54:37.761Z,6.80
2019-02-10T17:57:07.793Z,6.70
2019-02-10T17:59:38.129Z,6.70
2019-02-10T18:02:07.445Z,6.70
2019-02-10T18:04:37.800Z,6.60
2019-02-10T18:07:07.308Z,6.60
2019-02-10T18:09:37.177Z,6.60
2019-02-10T18:12:25.594Z,6.60
2019-02-10T18:15:26.231Z,6.50
2019-02-10T18:18:20.232Z,6.50
2019-02-10T18:21:23.833Z,6.40
2019-02-10T18:24:18.969Z,6.40
2019-02-10T18:27:04.355Z,6.30
2019-02-10T18:30:10.729Z,6.20
2019-02-10T18:33:05.207Z,6.20
2019-02-10T18:36:00.158Z,6.10
2019-02-10T18:38:54.098Z,6.00
2019-02-10T18:42:01.015Z,5.90
2019-02-10T18:44:40.993Z,5.80
2019-02-10T18:47:28.061Z,5.60
2019-02-10T18:50:35.256Z,5.50
2019-02-10T18:53:38.592Z,5.40
2019-02-10T18:56:33.158Z,5.10
2019-02-10T18:59:24.174Z,5.00
2019-02-10T19:02:12.806Z,4.80
2019-02-10T19:05:07.123Z,4.50
2019-02-10T19:08:10.460Z,4.30
2019-02-10T19:10:57.317Z,4.10
2019-02-10T19:13:40.300Z,4.00
2019-02-10T19:16:28.342Z,3.80
2019-02-10T19:19:16.858Z,3.80
2019-02-10T19:22:14.851Z,3.70
2019-02-10T19:25:03.917Z,3.60
2019-02-10T19:27:43.684Z,3.50
2019-02-10T19:30:41.523Z,3.50
2019-02-10T19:33:24.963Z,3.40
2019-02-10T19:36:19.863Z,3.40
2019-02-10T19:39:20.703Z,3.30
2019-02-10T19:42:18.796Z,3.30
2019-02-10T19:45:06.311Z,3.20
2019-02-10T19:47:59.124Z,3.10
2019-02-10T19:51:00.699Z,3.10
2019-02-10T19:53:52.206Z,3.10
2019-02-10T19:56:31.272Z,3.10
2019-02-10T19:59:13.604Z,3.10
2019-02-10T20:02:01.433Z,3.10
2019-02-10T20:04:53.416Z,3.10
2019-02-10T20:07:51.357Z,3.10
2019-02-10T20:10:38.348Z,3.10
2019-02-10T20:13:16.770Z,3.00
2019-02-10T20:15:58.326Z,2.90
2019-02-10T20:18:37.055Z,2.70
2019-02-10T20:21:35.040Z,2.60
2019-02-10T20:24:23.873Z,2.50
2019-02-10T20:27:12.886Z,2.40
2019-02-10T20:30:01.306Z,2.20
2019-02-10T20:32:42.572Z,2.10
2019-02-10T20:35:31.000Z,1.90
2019-02-10T20:38:31.389Z,1.80
2019-02-10T20:41:13.877Z,1.70
2019-02-10T20:43:52.864Z,1.60
2019-02-10T20:46:28.381Z,1.50
2019-02-10T20:49:17.345Z,1.40
2019-02-10T20:52:12.876Z,1.20
2019-02-10T20:54:57.156Z,1.10
2019-02-10T20:57:38.745Z,1.00
2019-02-10T21:00:45.717Z,0.90
2019-02-10T21:03:27.294Z,0.80
2019-02-10T21:06:11.398Z,0.70
2019-02-10T21:08:48.800Z,0.60
2019-02-10T21:11:35.667Z,0.50
2019-02-10T21:14:28.871Z,0.50
2019-02-10T21:17:20.438Z,0.40
2019-02-10T21:20:14.205Z,0.40
2019-02-10T21:23:09.978Z,0.40
2019-02-10T21:25:57.525Z,0.40
2019-02-10T21:29:09.057Z,0.40
2019-02-10T21:34:53.834Z,0.50
2019-02-10T21:37:43.800Z,0.50
2019-02-10T21:40:33.242Z,0.50
2019-02-10T21:43:27.446Z,0.50
2019-02-10T21:46:06.984Z,0.60
2019-02-10T21:49:08.024Z,0.60
2019-02-10T21:51:37.427Z,0.60
2019-02-10T21:54:07.417Z,0.60
2019-02-10T21:56:37.855Z,0.70
2019-02-10T21:59:07.488Z,0.70
2019-02-10T22:01:37.131Z,0.70
2019-02-10T22:04:06.501Z,0.80
2019-02-10T22:06:35.943Z,0.80
2019-02-10T22:09:06.809Z,0.90
2019-02-10T22:11:36.368Z,1.00
2019-02-10T22:14:06.407Z,1.10
2019-02-10T22:16:35.979Z,1.10
2019-02-10T22:19:05.204Z,1.20
2019-02-10T22:21:35.247Z,1.30
2019-02-10T22:24:05.346Z,1.40
2019-02-10T22:26:34.882Z,1.50
2019-02-10T22:29:04.934Z,1.70
2019-02-10T22:31:34.700Z,1.80
2019-02-10T22:34:05.242Z,2.00
2019-02-10T22:36:34.811Z,2.10
2019-02-10T22:39:05.359Z,2.30
2019-02-10T22:41:34.965Z,2.50
2019-02-10T22:44:05.025Z,2.60
2019-02-10T22:46:34.268Z,2.80
2019-02-10T22:49:03.890Z,3.00
2019-02-10T22:51:33.925Z,3.10
2019-02-10T22:54:03.397Z,3.30
2019-02-10T22:56:32.783Z,3.30
2019-02-10T22:59:02.001Z,3.40
2019-02-10T23:01:32.334Z,3.40
2019-02-10T23:04:01.541Z,3.50
2019-02-10T23:06:31.002Z,3.50
2019-02-10T23:09:00.580Z,3.60
2019-02-10T23:11:30.403Z,3.60
2019-02-10T23:14:00.268Z,3.60
2019-02-10T23:16:30.032Z,3.60
2019-02-10T23:18:59.358Z,3.60
2019-02-10T23:21:28.650Z,3.60
2019-02-10T23:23:58.227Z,3.60
2019-02-10T23:26:27.809Z,3.60
2019-02-10T23:28:57.454Z,3.60
2019-02-10T23:31:26.999Z,3.60
2019-02-10T23:33:56.219Z,3.60
2019-02-10T23:36:26.070Z,3.60
2019-02-10T23:38:55.293Z,3.60
2019-02-10T23:41:43.962Z,3.60
2019-02-10T23:44:13.625Z,3.60
2019-02-10T23:46:43.713Z,3.50
2019-02-10T23:49:13.278Z,3.60
2019-02-10T23:51:42.690Z,3.60
2019-02-10T23:54:12.689Z,3.60
2019-02-10T23:56:47.155Z,3.50
2019-02-10T23:59:14.146Z,3.50
